createdAt,value
2023-12-26T00:00:01.219Z,99.99
2023-12-26T00:00:41.688Z,99.99
2023-12-26T00:01:41.461Z,99.99
2023-12-26T00:02:41.846Z,99.99
2023-12-26T00:03:41.734Z,99.99
2023-12-26T00:04:41.454Z,99.99
2023-12-26T00:05:41.887Z,99.99
2023-12-26T00:06:41.593Z,99.99
2023-12-26T00:07:41.253Z,99.99
2023-12-26T00:08:41.358Z,99.99
2023-12-26T00:10:01.029Z,99.99
2023-12-26T00:10:40.951Z,99.99
2023-12-26T00:11:40.754Z,99.99
2023-12-26T00:12:41.460Z,99.99
2023-12-26T00:13:41.169Z,99.99
2023-12-26T00:14:41.859Z,99.99
2023-12-26T00:15:40.811Z,99.99
2023-12-26T00:16:40.895Z,99.99
2023-12-26T00:17:41.377Z,99.99
2023-12-26T00:18:40.949Z,99.99
2023-12-26T00:20:00.631Z,99.99
2023-12-26T00:20:41.692Z,99.99
2023-12-26T00:21:40.803Z,99.99
2023-12-26T00:22:40.656Z,99.99
2023-12-26T00:23:41.410Z,99.99
2023-12-26T00:24:41.093Z,99.99
2023-12-26T00:25:40.680Z,99.99
2023-12-26T00:26:41.300Z,99.99
2023-12-26T00:27:41.066Z,99.99
2023-12-26T00:28:40.963Z,99.99
2023-12-26T00:30:00.813Z,99.99
2023-12-26T00:30:40.630Z,99.99
2023-12-26T00:31:41.158Z,99.99
2023-12-26T00:32:40.805Z,99.99
2023-12-26T00:33:40.657Z,99.99
2023-12-26T00:34:41.085Z,99.99
2023-12-26T00:35:40.850Z,99.99
2023-12-26T00:36:40.610Z,99.99
2023-12-26T00:37:40.448Z,99.99
2023-12-26T00:38:41.481Z,99.99
2023-12-26T00:40:04.941Z,99.99
2023-12-26T00:40:40.509Z,99.99
2023-12-26T00:41:40.389Z,99.99
2023-12-26T00:42:40.695Z,99.99
2023-12-26T00:43:40.490Z,99.99
2023-12-26T00:44:40.953Z,99.99
2023-12-26T00:45:40.325Z,99.99
2023-12-26T00:46:40.666Z,99.99
2023-12-26T00:47:40.534Z,99.99
2023-12-26T00:48:40.342Z,99.99
2023-12-26T00:50:00.730Z,99.99
2023-12-26T00:50:40.525Z,99.99
2023-12-26T00:51:40.175Z,99.99
2023-12-26T00:52:40.489Z,99.99
2023-12-26T00:53:40.293Z,99.99
2023-12-26T00:54:40.562Z,99.99
2023-12-26T00:55:40.272Z,99.99
2023-12-26T00:56:40.537Z,99.99
2023-12-26T00:57:40.268Z,99.99
2023-12-26T00:58:40.527Z,99.99
2023-12-26T01:00:00.461Z,99.99
2023-12-26T01:00:40.543Z,99.99
2023-12-26T01:01:40.267Z,99.99
2023-12-26T01:02:40.097Z,99.99
2023-12-26T01:03:41.805Z,99.99
2023-12-26T01:04:40.066Z,99.99
2023-12-26T01:05:40.318Z,99.99
2023-12-26T01:06:40.040Z,99.99
2023-12-26T01:07:40.297Z,99.99
2023-12-26T01:08:40.062Z,99.99
2023-12-26T01:10:00.380Z,99.99
2023-12-26T01:10:40.156Z,99.99
2023-12-26T01:11:40.504Z,99.99
2023-12-26T01:12:40.237Z,99.99
2023-12-26T01:13:39.999Z,99.99
2023-12-26T01:14:40.263Z,99.99
2023-12-26T01:15:39.991Z,99.99
2023-12-26T01:16:40.303Z,99.99
2023-12-26T01:17:40.279Z,99.99
2023-12-26T01:18:40.036Z,99.99
2023-12-26T01:20:00.311Z,99.99
2023-12-26T01:20:40.046Z,99.99
2023-12-26T01:21:40.357Z,99.99
2023-12-26T01:22:40.180Z,99.99
2023-12-26T01:23:40.639Z,99.99
2023-12-26T01:24:40.226Z,99.99
2023-12-26T01:25:39.960Z,99.99
2023-12-26T01:26:40.235Z,99.99
2023-12-26T01:27:39.952Z,99.99
2023-12-26T01:28:40.244Z,99.99
2023-12-26T01:30:00.873Z,99.99
2023-12-26T01:30:39.851Z,99.99
2023-12-26T01:31:40.116Z,99.99
2023-12-26T01:32:39.923Z,99.99
2023-12-26T01:33:40.210Z,99.99
2023-12-26T01:34:39.903Z,99.99
2023-12-26T01:35:40.095Z,99.99
2023-12-26T01:36:39.803Z,99.99
2023-12-26T01:37:40.037Z,99.99
2023-12-26T01:38:39.806Z,99.99
2023-12-26T01:40:00.038Z,99.99
2023-12-26T01:40:39.779Z,99.99
2023-12-26T01:41:40.097Z,99.99
2023-12-26T01:42:39.818Z,99.99
2023-12-26T01:43:39.856Z,99.99
2023-12-26T01:44:39.690Z,99.99
2023-12-26T01:45:39.945Z,99.99
2023-12-26T01:46:39.721Z,99.99
2023-12-26T01:47:40.002Z,99.99
2023-12-26T01:48:41.753Z,99.99
2023-12-26T01:49:59.986Z,99.99
2023-12-26T01:50:39.677Z,99.99
2023-12-26T01:51:40.417Z,99.99
2023-12-26T01:52:44.884Z,99.99
2023-12-26T01:53:45.932Z,99.99
2023-12-26T01:54:39.642Z,99.99
2023-12-26T01:55:39.890Z,99.99
2023-12-26T01:56:39.667Z,99.99
2023-12-26T01:57:39.879Z,99.99
2023-12-26T01:58:39.641Z,99.99
2023-12-26T01:59:59.918Z,99.99
2023-12-26T02:00:39.795Z,99.99
2023-12-26T02:01:40.133Z,99.99
2023-12-26T02:02:39.775Z,99.99
2023-12-26T02:03:39.638Z,99.99
2023-12-26T02:04:39.947Z,99.99
2023-12-26T02:05:39.684Z,99.99
2023-12-26T02:06:39.463Z,99.99
2023-12-26T02:07:39.759Z,99.99
2023-12-26T02:08:39.887Z,99.99
2023-12-26T02:09:59.923Z,99.99
2023-12-26T02:10:39.646Z,99.99
2023-12-26T02:11:40.156Z,99.99
2023-12-26T02:12:39.797Z,99.99
2023-12-26T02:13:39.542Z,99.99
2023-12-26T02:14:40.036Z,99.99
2023-12-26T02:15:39.663Z,99.99
2023-12-26T02:16:39.470Z,99.99
2023-12-26T02:17:40.444Z,99.99
2023-12-26T02:18:39.778Z,99.99
2023-12-26T02:19:59.397Z,99.99
2023-12-26T02:20:39.888Z,99.99
2023-12-26T02:21:39.478Z,99.99
2023-12-26T02:22:39.275Z,99.99
2023-12-26T02:23:39.586Z,99.99
2023-12-26T02:24:39.375Z,99.99
2023-12-26T02:25:39.679Z,99.99
2023-12-26T02:26:39.533Z,99.99
2023-12-26T02:27:39.320Z,99.99
2023-12-26T02:28:39.607Z,99.99
2023-12-26T02:29:59.402Z,99.99
2023-12-26T02:30:39.211Z,99.99
2023-12-26T02:31:39.470Z,99.99
2023-12-26T02:32:39.429Z,99.99
2023-12-26T02:33:39.699Z,99.99
2023-12-26T02:34:39.571Z,99.99
2023-12-26T02:35:39.198Z,99.99
2023-12-26T02:36:39.731Z,99.99
2023-12-26T02:37:39.308Z,99.99
2023-12-26T02:38:39.188Z,99.99
2023-12-26T02:39:59.460Z,99.99
2023-12-26T02:40:39.270Z,99.99
2023-12-26T02:41:39.787Z,99.99
2023-12-26T02:42:39.394Z,99.99
2023-12-26T02:43:39.187Z,99.99
2023-12-26T02:44:38.985Z,99.99
2023-12-26T02:45:39.265Z,99.99
2023-12-26T02:46:39.130Z,99.99
2023-12-26T02:47:39.539Z,99.99
2023-12-26T02:48:39.321Z,99.99
2023-12-26T02:49:58.966Z,99.99
2023-12-26T02:50:39.316Z,99.99
2023-12-26T02:51:39.068Z,99.99
2023-12-26T02:52:39.393Z,99.99
2023-12-26T02:53:39.234Z,99.99
2023-12-26T02:54:39.057Z,99.99
2023-12-26T02:55:39.408Z,99.99
2023-12-26T02:56:39.155Z,99.99
2023-12-26T02:57:38.956Z,99.99
2023-12-26T02:58:39.312Z,99.99
2023-12-26T02:59:59.297Z,99.99
2023-12-26T03:00:39.067Z,99.99
2023-12-26T03:01:38.784Z,99.99
2023-12-26T03:02:39.107Z,99.99
2023-12-26T03:03:38.866Z,99.99
2023-12-26T03:04:39.052Z,99.99
2023-12-26T03:05:39.002Z,99.99
2023-12-26T03:06:39.122Z,99.99
2023-12-26T03:07:38.822Z,99.99
2023-12-26T03:08:39.091Z,99.99
2023-12-26T03:09:59.893Z,99.99
2023-12-26T03:10:39.152Z,99.99
2023-12-26T03:11:38.938Z,99.99
2023-12-26T03:12:39.161Z,99.99
2023-12-26T03:13:38.977Z,99.99
2023-12-26T03:14:38.732Z,99.99
2023-12-26T03:15:38.971Z,99.99
2023-12-26T03:16:38.710Z,99.99
2023-12-26T03:17:39.084Z,99.99
2023-12-26T03:18:38.807Z,99.99
2023-12-26T03:20:00.042Z,99.99
2023-12-26T03:20:38.921Z,99.99
2023-12-26T03:21:39.326Z,99.99
2023-12-26T03:22:38.944Z,99.99
2023-12-26T03:23:39.275Z,99.99
2023-12-26T03:24:39.020Z,99.99
2023-12-26T03:25:39.129Z,99.99
2023-12-26T03:26:39.073Z,99.99
2023-12-26T03:27:39.021Z,99.99
2023-12-26T03:28:38.751Z,99.99
2023-12-26T03:29:59.119Z,99.99
2023-12-26T03:30:39.205Z,99.99
2023-12-26T03:31:38.735Z,99.99
2023-12-26T03:32:38.504Z,99.99
2023-12-26T03:33:39.609Z,99.99
2023-12-26T03:34:38.487Z,99.99
2023-12-26T03:35:38.811Z,99.99
2023-12-26T03:36:39.196Z,99.99
2023-12-26T03:37:38.746Z,99.99
2023-12-26T03:38:38.536Z,99.99
2023-12-26T03:39:58.917Z,99.99
2023-12-26T03:40:38.750Z,99.99
2023-12-26T03:41:38.608Z,99.99
2023-12-26T03:42:38.823Z,99.99
2023-12-26T03:43:38.657Z,99.99
2023-12-26T03:44:38.540Z,99.99
2023-12-26T03:45:38.789Z,99.99
2023-12-26T03:46:38.593Z,99.99
2023-12-26T03:47:38.661Z,99.99
2023-12-26T03:48:40.741Z,99.99
2023-12-26T03:49:58.253Z,99.99
2023-12-26T03:50:38.696Z,99.99
2023-12-26T03:51:38.405Z,99.99
2023-12-26T03:52:38.713Z,99.99
2023-12-26T03:53:38.583Z,99.99
2023-12-26T03:54:38.346Z,99.99
2023-12-26T03:55:39.317Z,99.99
2023-12-26T03:56:38.450Z,99.99
2023-12-26T03:57:38.763Z,99.99
2023-12-26T03:58:38.579Z,99.99
2023-12-26T03:59:59.922Z,99.99
2023-12-26T04:00:38.757Z,99.99
2023-12-26T04:01:38.540Z,99.99
2023-12-26T04:02:38.420Z,99.99
2023-12-26T04:03:38.791Z,99.99
2023-12-26T04:04:38.566Z,99.99
2023-12-26T04:05:38.363Z,99.99
2023-12-26T04:06:38.777Z,99.99
2023-12-26T04:07:38.456Z,99.99
2023-12-26T04:08:38.278Z,99.99
2023-12-26T04:09:58.721Z,99.99
2023-12-26T04:10:38.370Z,99.99
2023-12-26T04:11:38.142Z,99.99
2023-12-26T04:12:38.444Z,99.99
2023-12-26T04:13:38.285Z,99.99
2023-12-26T04:14:39.046Z,99.99
2023-12-26T04:15:38.395Z,99.99
2023-12-26T04:16:39.684Z,99.99
2023-12-26T04:17:38.650Z,99.99
2023-12-26T04:18:38.766Z,99.99
2023-12-26T04:19:58.429Z,99.99
2023-12-26T04:20:38.256Z,99.99
2023-12-26T04:21:37.999Z,99.99
2023-12-26T04:22:38.226Z,99.99
2023-12-26T04:23:37.989Z,99.99
2023-12-26T04:24:38.941Z,99.99
2023-12-26T04:25:37.987Z,99.99
2023-12-26T04:26:38.362Z,99.99
2023-12-26T04:27:38.140Z,99.99
2023-12-26T04:28:37.956Z,99.99
2023-12-26T04:29:58.391Z,99.99
2023-12-26T04:30:38.675Z,99.99
2023-12-26T04:31:38.447Z,99.99
2023-12-26T04:32:38.078Z,99.99
2023-12-26T04:33:38.463Z,99.99
2023-12-26T04:34:38.183Z,99.99
2023-12-26T04:35:38.000Z,99.99
2023-12-26T04:36:38.292Z,99.99
2023-12-26T04:37:38.117Z,99.99
2023-12-26T04:38:37.958Z,99.99
2023-12-26T04:39:58.315Z,99.99
2023-12-26T04:40:38.113Z,99.99
2023-12-26T04:41:38.600Z,99.99
2023-12-26T04:42:38.138Z,99.99
2023-12-26T04:43:38.115Z,99.99
2023-12-26T04:44:38.143Z,99.99
2023-12-26T04:45:37.905Z,99.99
2023-12-26T04:46:38.119Z,99.99
2023-12-26T04:47:37.973Z,99.99
2023-12-26T04:48:38.932Z,99.99
2023-12-26T04:49:58.453Z,99.99
2023-12-26T04:50:37.845Z,99.99
2023-12-26T04:51:38.093Z,99.99
2023-12-26T04:52:37.892Z,99.99
2023-12-26T04:53:37.680Z,99.99
2023-12-26T04:54:37.888Z,99.99
2023-12-26T04:55:38.858Z,99.99
2023-12-26T04:56:37.933Z,99.99
2023-12-26T04:57:37.726Z,99.99
2023-12-26T04:58:37.967Z,99.99
2023-12-26T04:59:58.672Z,99.99
2023-12-26T05:00:37.690Z,99.99
2023-12-26T05:01:37.952Z,99.99
2023-12-26T05:02:37.745Z,99.99
2023-12-26T05:03:38.157Z,99.99
2023-12-26T05:04:37.707Z,99.99
2023-12-26T05:05:38.030Z,99.99
2023-12-26T05:06:37.836Z,99.99
2023-12-26T05:07:38.043Z,99.99
2023-12-26T05:08:37.695Z,99.99
2023-12-26T05:09:58.053Z,99.99
2023-12-26T05:10:37.800Z,99.99
2023-12-26T05:11:37.548Z,99.99
2023-12-26T05:12:38.488Z,99.99
2023-12-26T05:13:37.531Z,99.99
2023-12-26T05:14:37.844Z,99.99
2023-12-26T05:15:37.517Z,99.99
2023-12-26T05:16:37.789Z,99.99
2023-12-26T05:17:37.590Z,99.99
2023-12-26T05:18:37.936Z,99.99
2023-12-26T05:20:04.091Z,99.99
2023-12-26T05:20:37.893Z,99.99
2023-12-26T05:21:37.619Z,99.99
2023-12-26T05:22:37.366Z,99.99
2023-12-26T05:23:37.642Z,99.99
2023-12-26T05:24:48.239Z,99.99
2023-12-26T05:25:38.617Z,99.99
2023-12-26T05:26:37.399Z,99.99
2023-12-26T05:27:37.627Z,99.99
2023-12-26T05:28:37.353Z,99.99
2023-12-26T05:29:58.357Z,99.99
2023-12-26T05:30:37.614Z,99.99
2023-12-26T05:31:37.691Z,99.99
2023-12-26T05:32:38.233Z,99.99
2023-12-26T05:33:38.033Z,99.99
2023-12-26T05:34:37.426Z,99.99
2023-12-26T05:35:37.725Z,99.99
2023-12-26T05:36:37.416Z,99.99
2023-12-26T05:37:38.372Z,99.99
2023-12-26T05:38:39.444Z,99.99
2023-12-26T05:39:57.736Z,99.99
2023-12-26T05:40:37.502Z,99.99
2023-12-26T05:41:38.427Z,99.99
2023-12-26T05:42:37.394Z,99.99
2023-12-26T05:43:37.651Z,99.99
2023-12-26T05:44:37.449Z,99.99
2023-12-26T05:45:37.466Z,99.99
2023-12-26T05:46:37.562Z,99.99
2023-12-26T05:47:37.493Z,99.99
2023-12-26T05:48:37.947Z,99.99
2023-12-26T05:49:57.668Z,99.99
2023-12-26T05:50:39.377Z,99.99
2023-12-26T05:51:39.529Z,99.99
2023-12-26T05:52:39.496Z,99.99
2023-12-26T05:53:39.020Z,99.99
2023-12-26T05:54:39.488Z,99.99
2023-12-26T05:55:39.039Z,99.99
2023-12-26T05:56:39.500Z,99.99
2023-12-26T05:57:39.459Z,99.99
2023-12-26T05:58:39.458Z,99.99
2023-12-26T05:59:58.031Z,99.99
2023-12-26T06:00:37.362Z,99.99
2023-12-26T06:01:37.157Z,99.99
2023-12-26T06:02:37.458Z,99.99
2023-12-26T06:03:37.407Z,99.99
2023-12-26T06:04:37.072Z,99.99
2023-12-26T06:05:37.456Z,99.99
2023-12-26T06:06:37.258Z,99.99
2023-12-26T06:07:37.000Z,99.99
2023-12-26T06:08:37.245Z,99.99
2023-12-26T06:09:57.113Z,99.99
2023-12-26T06:10:36.916Z,99.99
2023-12-26T06:11:37.589Z,99.99
2023-12-26T06:12:37.682Z,99.99
2023-12-26T06:13:37.385Z,99.99
2023-12-26T06:14:37.240Z,99.99
2023-12-26T06:15:36.948Z,99.99
2023-12-26T06:16:37.337Z,99.99
2023-12-26T06:17:37.263Z,99.99
2023-12-26T06:18:37.108Z,99.99
2023-12-26T06:19:57.703Z,99.99
2023-12-26T06:20:37.056Z,99.99
2023-12-26T06:21:36.774Z,99.99
2023-12-26T06:22:37.142Z,99.99
2023-12-26T06:23:36.981Z,99.99
2023-12-26T06:24:37.703Z,99.99
2023-12-26T06:25:37.118Z,99.99
2023-12-26T06:26:37.101Z,99.99
2023-12-26T06:27:37.239Z,99.99
2023-12-26T06:28:37.038Z,99.99
2023-12-26T06:29:56.922Z,99.99
2023-12-26T06:30:36.746Z,99.99
2023-12-26T06:31:37.136Z,99.99
2023-12-26T06:32:36.769Z,99.85
2023-12-26T06:33:37.196Z,99.85
2023-12-26T06:34:36.899Z,99.85
2023-12-26T06:35:36.663Z,99.65
2023-12-26T06:36:37.006Z,99.24
2023-12-26T06:37:36.863Z,98.52
2023-12-26T06:38:36.659Z,98.21
2023-12-26T06:39:57.692Z,98.11
2023-12-26T06:40:36.856Z,98.21
2023-12-26T06:41:36.694Z,98.11
2023-12-26T06:42:37.111Z,98.21
2023-12-26T06:43:36.888Z,98.32
2023-12-26T06:44:36.615Z,98.11
2023-12-26T06:45:36.936Z,97.54
2023-12-26T06:46:36.741Z,97.64
2023-12-26T06:47:37.209Z,97.74
2023-12-26T06:48:36.930Z,97.13
2023-12-26T06:49:56.722Z,96.62
2023-12-26T06:50:36.463Z,96.62
2023-12-26T06:51:37.426Z,96.92
2023-12-26T06:52:36.648Z,97.03
2023-12-26T06:53:36.922Z,96.92
2023-12-26T06:54:36.746Z,97.33
2023-12-26T06:55:36.581Z,97.33
2023-12-26T06:56:36.908Z,97.33
2023-12-26T06:57:37.215Z,97.64
2023-12-26T06:58:36.487Z,97.33
2023-12-26T06:59:57.079Z,97.54
2023-12-26T07:00:36.786Z,97.44
2023-12-26T07:01:36.692Z,97.64
2023-12-26T07:02:36.372Z,97.48
2023-12-26T07:03:36.765Z,96.77
2023-12-26T07:04:36.481Z,96.56
2023-12-26T07:05:36.845Z,96.77
2023-12-26T07:06:36.719Z,97.38
2023-12-26T07:07:36.340Z,96.97
2023-12-26T07:08:36.688Z,96.77
2023-12-26T07:09:58.455Z,96.66
2023-12-26T07:10:36.865Z,97.07
2023-12-26T07:11:36.733Z,97.07
2023-12-26T07:12:36.476Z,96.66
2023-12-26T07:13:36.222Z,96.45
2023-12-26T07:14:37.113Z,96.66
2023-12-26T07:15:36.415Z,96.04
2023-12-26T07:16:36.711Z,96.45
2023-12-26T07:17:36.925Z,96.66
2023-12-26T07:18:36.930Z,97.07
2023-12-26T07:19:56.765Z,97.07
2023-12-26T07:20:36.561Z,97.12
2023-12-26T07:21:36.391Z,97.12
2023-12-26T07:22:36.232Z,97.32
2023-12-26T07:23:36.536Z,97.22
2023-12-26T07:24:36.264Z,97.32
2023-12-26T07:25:36.564Z,97.22
2023-12-26T07:26:36.371Z,97.02
2023-12-26T07:27:36.086Z,96.81
2023-12-26T07:28:36.409Z,96.81
2023-12-26T07:29:56.299Z,96.70
2023-12-26T07:30:36.368Z,96.75
2023-12-26T07:31:36.421Z,96.85
2023-12-26T07:32:36.199Z,96.95
2023-12-26T07:33:36.679Z,97.06
2023-12-26T07:34:36.434Z,96.95
2023-12-26T07:35:36.123Z,97.06
2023-12-26T07:36:36.532Z,96.75
2023-12-26T07:37:36.257Z,96.95
2023-12-26T07:38:36.060Z,96.95
2023-12-26T07:39:56.754Z,97.57
2023-12-26T07:40:36.267Z,97.78
2023-12-26T07:41:36.105Z,97.57
2023-12-26T07:42:36.437Z,97.88
2023-12-26T07:43:36.641Z,98.50
2023-12-26T07:44:36.041Z,98.60
2023-12-26T07:45:36.397Z,98.60
2023-12-26T07:46:36.171Z,98.80
2023-12-26T07:47:36.122Z,99.11
2023-12-26T07:48:36.553Z,99.32
2023-12-26T07:49:56.345Z,99.52
2023-12-26T07:50:35.985Z,99.73
2023-12-26T07:51:36.289Z,99.52
2023-12-26T07:52:36.058Z,99.42
2023-12-26T07:53:36.515Z,99.52
2023-12-26T07:54:36.108Z,99.52
2023-12-26T07:55:35.949Z,99.52
2023-12-26T07:56:36.254Z,99.63
2023-12-26T07:57:36.062Z,99.73
2023-12-26T07:58:35.885Z,99.83
2023-12-26T07:59:57.721Z,99.83
2023-12-26T08:00:36.280Z,99.52
2023-12-26T08:01:36.019Z,99.63
2023-12-26T08:02:35.838Z,99.63
2023-12-26T08:03:36.119Z,99.52
2023-12-26T08:04:36.925Z,99.21
2023-12-26T08:05:36.110Z,98.91
2023-12-26T08:06:36.254Z,98.91
2023-12-26T08:07:35.847Z,98.91
2023-12-26T08:08:36.064Z,99.11
2023-12-26T08:09:55.909Z,99.01
2023-12-26T08:10:35.786Z,98.91
2023-12-26T08:11:36.084Z,99.01
2023-12-26T08:12:35.906Z,99.52
2023-12-26T08:13:35.778Z,99.73
2023-12-26T08:14:35.949Z,99.93
2023-12-26T08:15:35.686Z,99.93
2023-12-26T08:16:36.015Z,99.93
2023-12-26T08:17:35.805Z,99.73
2023-12-26T08:18:35.634Z,99.83
2023-12-26T08:19:56.490Z,99.73
2023-12-26T08:20:35.568Z,99.63
2023-12-26T08:21:35.807Z,99.73
2023-12-26T08:22:35.554Z,99.73
2023-12-26T08:23:35.803Z,99.73
2023-12-26T08:24:35.552Z,99.83
2023-12-26T08:25:35.784Z,99.99
2023-12-26T08:26:35.557Z,99.99
2023-12-26T08:27:35.819Z,99.99
2023-12-26T08:28:35.566Z,99.99
2023-12-26T08:29:56.571Z,99.99
2023-12-26T08:30:39.526Z,99.99
2023-12-26T08:31:35.427Z,99.99
2023-12-26T08:32:35.714Z,99.99
2023-12-26T08:33:35.485Z,99.99
2023-12-26T08:34:35.734Z,99.99
2023-12-26T08:35:35.483Z,99.99
2023-12-26T08:36:36.386Z,99.99
2023-12-26T08:37:35.431Z,99.99
2023-12-26T08:38:35.686Z,99.99
2023-12-26T08:39:56.449Z,99.99
2023-12-26T08:40:35.778Z,99.99
2023-12-26T08:41:35.509Z,99.99
2023-12-26T08:42:35.272Z,99.99
2023-12-26T08:43:35.600Z,99.99
2023-12-26T08:44:35.362Z,99.74
2023-12-26T08:45:35.679Z,99.22
2023-12-26T08:46:35.956Z,98.92
2023-12-26T08:47:35.370Z,98.87
2023-12-26T08:48:35.808Z,98.57
2023-12-26T08:49:56.401Z,98.05
2023-12-26T08:50:35.200Z,97.74
2023-12-26T08:51:35.517Z,97.54
2023-12-26T08:52:35.346Z,97.44
2023-12-26T08:53:35.951Z,97.44
2023-12-26T08:54:35.492Z,97.44
2023-12-26T08:55:35.225Z,97.44
2023-12-26T08:56:35.562Z,97.13
2023-12-26T08:57:35.204Z,96.72
2023-12-26T08:58:35.475Z,96.62
2023-12-26T08:59:57.262Z,96.72
2023-12-26T09:00:36.570Z,96.51
2023-12-26T09:01:35.287Z,96.51
2023-12-26T09:02:35.049Z,96.41
2023-12-26T09:03:35.331Z,96.45
2023-12-26T09:04:35.117Z,96.25
2023-12-26T09:05:35.376Z,96.04
2023-12-26T09:06:35.081Z,95.74
2023-12-26T09:07:43.896Z,95.84
2023-12-26T09:08:35.204Z,95.84
2023-12-26T09:09:56.509Z,95.64
2023-12-26T09:10:35.697Z,95.43
2023-12-26T09:11:35.155Z,95.43
2023-12-26T09:12:35.457Z,95.43
2023-12-26T09:13:35.251Z,95.74
2023-12-26T09:14:35.009Z,95.64
2023-12-26T09:15:35.269Z,95.69
2023-12-26T09:16:35.000Z,95.69
2023-12-26T09:17:35.320Z,95.49
2023-12-26T09:18:41.393Z,95.39
2023-12-26T09:19:57.233Z,94.98
2023-12-26T09:20:35.038Z,95.18
2023-12-26T09:21:35.306Z,94.73
2023-12-26T09:22:35.062Z,94.93
2023-12-26T09:23:35.396Z,94.73
2023-12-26T09:24:35.240Z,94.62
2023-12-26T09:25:35.064Z,94.27
2023-12-26T09:26:34.864Z,94.07
2023-12-26T09:27:35.257Z,93.86
2023-12-26T09:28:35.028Z,93.92
2023-12-26T09:29:55.357Z,93.57
2023-12-26T09:30:37.210Z,93.37
2023-12-26T09:31:35.293Z,92.91
2023-12-26T09:32:35.170Z,92.30
2023-12-26T09:33:35.086Z,92.05
2023-12-26T09:34:35.523Z,91.23
2023-12-26T09:35:36.585Z,90.99
2023-12-26T09:36:34.941Z,90.27
2023-12-26T09:37:35.845Z,89.51
2023-12-26T09:38:35.034Z,88.90
2023-12-26T09:39:54.801Z,89.20
2023-12-26T09:40:35.040Z,88.94
2023-12-26T09:41:34.804Z,88.53
2023-12-26T09:42:35.061Z,88.74
2023-12-26T09:43:40.113Z,88.74
2023-12-26T09:44:35.221Z,89.04
2023-12-26T09:46:34.394Z,88.08
2023-12-26T09:47:34.256Z,87.37
2023-12-26T09:48:33.515Z,87.06
2023-12-26T09:49:34.394Z,87.02
2023-12-26T09:50:34.501Z,86.82
2023-12-26T09:51:34.524Z,86.96
2023-12-26T09:52:34.226Z,87.37
2023-12-26T09:53:34.013Z,87.41
2023-12-26T09:54:34.307Z,88.12
2023-12-26T09:55:54.154Z,87.85
2023-12-26T09:56:33.875Z,88.37
2023-12-26T09:57:34.220Z,88.88
2023-12-26T09:58:34.047Z,88.37
2023-12-26T09:59:34.264Z,88.57
2023-12-26T10:00:34.744Z,88.06
2023-12-26T10:01:33.904Z,88.68
2023-12-26T10:02:35.168Z,88.82
2023-12-26T10:03:34.397Z,89.12
2023-12-26T10:04:34.018Z,89.84
2023-12-26T10:05:56.249Z,90.15
2023-12-26T10:06:34.474Z,90.36
2023-12-26T10:07:34.863Z,90.30
2023-12-26T10:08:34.219Z,90.70
2023-12-26T10:09:34.492Z,90.70
2023-12-26T10:10:34.824Z,91.26
2023-12-26T10:11:34.149Z,91.26
2023-12-26T10:12:33.995Z,91.36
2023-12-26T10:13:34.817Z,91.16
2023-12-26T10:14:34.197Z,91.77
2023-12-26T10:15:53.880Z,92.18
2023-12-26T10:16:34.284Z,92.49
2023-12-26T10:17:34.701Z,92.38
2023-12-26T10:18:35.886Z,92.63
2023-12-26T10:19:36.286Z,92.83
2023-12-26T10:20:35.876Z,93.04
2023-12-26T10:21:35.708Z,93.00
2023-12-26T10:22:36.010Z,93.10
2023-12-26T10:23:33.917Z,92.14
2023-12-26T10:24:33.719Z,91.73
2023-12-26T10:25:54.054Z,91.63
2023-12-26T10:26:33.869Z,91.83
2023-12-26T10:27:34.312Z,92.14
2023-12-26T10:28:34.278Z,91.99
2023-12-26T10:29:33.942Z,91.48
2023-12-26T10:30:34.019Z,90.90
2023-12-26T10:31:34.770Z,87.30
2023-12-26T10:32:34.084Z,86.49
2023-12-26T10:33:33.923Z,85.39
2023-12-26T10:34:35.418Z,83.89
2023-12-26T10:35:53.931Z,79.16
2023-12-26T10:40:09.252Z,77.97
2023-12-26T10:42:10.111Z,69.65
2023-12-26T10:42:17.413Z,66.25
2023-12-26T10:49:01.807Z,65.01
2023-12-26T10:49:06.732Z,61.21
2023-12-26T10:59:15.909Z,62.68
2023-12-26T10:59:20.674Z,58.09
2023-12-26T11:03:37.154Z,57.98
2023-12-26T11:03:42.450Z,57.91
2023-12-26T11:08:06.789Z,58.79
2023-12-26T11:08:11.558Z,57.61
2023-12-26T11:09:47.458Z,59.01
2023-12-26T11:10:12.468Z,57.46
2023-12-26T11:11:17.973Z,57.68
2023-12-26T11:12:12.277Z,57.98
2023-12-26T11:13:18.495Z,57.54
2023-12-26T11:14:12.310Z,58.25
2023-12-26T11:15:18.698Z,60.47
2023-12-26T11:16:54.422Z,60.03
2023-12-26T11:17:32.318Z,59.23
2023-12-26T11:18:12.213Z,59.86
2023-12-26T11:19:12.493Z,61.18
2023-12-26T11:20:12.212Z,63.09
2023-12-26T11:21:12.131Z,65.57
2023-12-26T11:22:12.359Z,65.94
2023-12-26T11:23:12.110Z,67.32
2023-12-26T11:24:12.380Z,68.80
2023-12-26T11:25:12.496Z,69.47
2023-12-26T11:26:12.031Z,70.18
2023-12-26T11:27:48.883Z,69.88
2023-12-26T11:28:12.311Z,69.00
2023-12-26T11:29:12.202Z,68.40
2023-12-26T11:30:12.066Z,69.64
2023-12-26T11:31:12.273Z,71.64
2023-12-26T11:33:30.633Z,68.53
2023-12-26T11:33:35.938Z,64.94
2023-12-26T11:35:07.209Z,64.16
2023-12-26T11:35:36.639Z,64.04
2023-12-26T11:37:00.953Z,61.25
2023-12-26T11:37:56.401Z,60.74
2023-12-26T11:38:36.090Z,61.55
2023-12-26T11:39:36.243Z,63.78
2023-12-26T11:40:36.372Z,64.19
2023-12-26T11:41:36.424Z,64.96
2023-12-26T11:42:36.727Z,66.50
2023-12-26T11:43:51.912Z,69.17
2023-12-26T11:44:36.851Z,67.72
2023-12-26T11:45:36.100Z,69.10
2023-12-26T11:46:36.056Z,70.59
2023-12-26T11:47:56.413Z,71.47
2023-12-26T11:48:36.449Z,71.16
2023-12-26T11:49:36.104Z,69.95
2023-12-26T11:50:35.859Z,70.62
2023-12-26T11:51:36.265Z,70.11
2023-12-26T11:52:36.096Z,69.60
2023-12-26T11:53:35.906Z,69.57
2023-12-26T11:54:36.770Z,67.99
2023-12-26T11:55:36.148Z,65.62
2023-12-26T11:56:36.028Z,66.03
2023-12-26T11:57:55.834Z,65.90
2023-12-26T11:58:36.741Z,66.81
2023-12-26T11:59:36.117Z,65.36
2023-12-26T12:00:36.094Z,63.84
2023-12-26T12:01:35.862Z,64.69
2023-12-26T12:02:36.118Z,66.47
2023-12-26T12:03:36.228Z,67.75
2023-12-26T12:04:36.005Z,68.39
2023-12-26T12:05:37.731Z,69.47
2023-12-26T12:06:37.120Z,70.04
2023-12-26T12:07:55.950Z,71.30
2023-12-26T12:08:35.780Z,72.04
2023-12-26T12:09:36.698Z,72.55
2023-12-26T12:10:36.594Z,73.40
2023-12-26T12:11:36.423Z,73.91
2023-12-26T12:12:36.250Z,74.21
2023-12-26T12:13:36.568Z,74.65
2023-12-26T12:14:36.388Z,75.20
2023-12-26T12:15:36.209Z,76.01
2023-12-26T12:16:36.513Z,76.15
2023-12-26T12:17:55.877Z,76.59
2023-12-26T12:18:36.302Z,76.80
2023-12-26T12:19:36.205Z,77.55
2023-12-26T12:20:36.382Z,77.45
2023-12-26T12:21:36.218Z,77.25
2023-12-26T12:22:36.525Z,78.30
2023-12-26T12:23:36.340Z,78.41
2023-12-26T12:24:36.146Z,78.06
2023-12-26T12:25:36.462Z,78.77
2023-12-26T12:26:36.425Z,78.06
2023-12-26T12:27:55.595Z,77.45
2023-12-26T12:28:35.460Z,77.59
2023-12-26T12:29:35.780Z,78.41
2023-12-26T12:30:35.714Z,79.22
2023-12-26T12:31:36.392Z,78.20
2023-12-26T12:32:37.471Z,78.61
2023-12-26T12:33:36.805Z,79.36
2023-12-26T12:34:37.440Z,79.25
2023-12-26T12:35:37.699Z,79.57
2023-12-26T12:36:37.547Z,79.66
2023-12-26T12:37:55.354Z,79.97
2023-12-26T12:38:36.217Z,79.77
2023-12-26T12:39:35.604Z,80.18
2023-12-26T12:40:35.505Z,79.77
2023-12-26T12:41:37.616Z,80.18
2023-12-26T12:42:37.233Z,80.34
2023-12-26T12:43:37.277Z,80.96
2023-12-26T12:44:36.208Z,81.05
2023-12-26T12:45:36.410Z,80.75
2023-12-26T12:46:35.510Z,80.34
2023-12-26T12:47:55.692Z,79.43
2023-12-26T12:48:36.547Z,79.46
2023-12-26T12:49:35.972Z,79.87
2023-12-26T12:50:37.572Z,79.66
2023-12-26T12:51:36.698Z,80.38
2023-12-26T12:52:37.529Z,80.48
2023-12-26T12:53:37.532Z,80.18
2023-12-26T12:54:35.725Z,80.79
2023-12-26T12:55:35.912Z,81.51
2023-12-26T12:56:37.488Z,81.71
2023-12-26T12:57:55.421Z,81.03
2023-12-26T12:58:36.519Z,81.44
2023-12-26T12:59:35.735Z,81.54
2023-12-26T13:00:36.142Z,81.54
2023-12-26T13:01:35.232Z,82.05
2023-12-26T13:02:35.725Z,81.65
2023-12-26T13:03:36.226Z,81.34
2023-12-26T13:04:36.297Z,81.74
2023-12-26T13:05:35.688Z,81.79
2023-12-26T13:06:35.831Z,82.50
2023-12-26T13:07:55.189Z,83.42
2023-12-26T13:08:35.631Z,83.52
2023-12-26T13:09:35.943Z,83.52
2023-12-26T13:10:35.752Z,83.52
2023-12-26T13:11:35.590Z,83.48
2023-12-26T13:12:35.959Z,83.22
2023-12-26T13:13:35.911Z,83.52
2023-12-26T13:14:35.736Z,83.32